createdAt,value
2019-03-08T00:01:09.719Z,9.67
2019-03-08T00:03:45.243Z,7.73
2019-03-08T00:06:22.664Z,8.30
2019-03-08T00:08:58.340Z,9.90
2019-03-08T00:11:31.768Z,9.93
2019-03-08T00:14:06.328Z,11.83
2019-03-08T00:16:40.726Z,6.70
2019-03-08T00:19:14.685Z,11.77
2019-03-08T00:22:02.912Z,7.23
2019-03-08T00:24:37.414Z,10.87
2019-03-08T00:27:15.638Z,8.63
2019-03-08T00:29:49.881Z,8.50
2019-03-08T00:32:23.683Z,6.10
2019-03-08T00:34:58.270Z,5.93
2019-03-08T00:37:35.294Z,7.83
2019-03-08T00:40:12.864Z,6.47
2019-03-08T00:42:46.783Z,8.00
2019-03-08T00:45:20.456Z,7.07
2019-03-08T00:47:54.507Z,7.27
2019-03-08T00:50:27.905Z,9.97
2019-03-08T00:53:04.080Z,8.00
2019-03-08T00:55:38.301Z,8.13
2019-03-08T00:58:13.121Z,7.60
2019-03-08T01:00:48.151Z,9.00
2019-03-08T01:03:22.082Z,12.57
2019-03-08T01:05:56.052Z,10.10
2019-03-08T01:08:31.056Z,9.90
2019-03-08T01:11:05.623Z,10.57
2019-03-08T01:13:41.176Z,11.90
2019-03-08T01:16:17.958Z,11.57
2019-03-08T01:18:51.886Z,6.43
2019-03-08T01:21:26.397Z,6.77
2019-03-08T01:24:00.509Z,12.97
2019-03-08T01:26:35.277Z,10.50
2019-03-08T01:29:09.888Z,8.70
2019-03-08T01:31:43.697Z,12.53
2019-03-08T01:34:20.235Z,8.93
2019-03-08T01:36:54.431Z,9.83
2019-03-08T01:39:28.702Z,11.37
2019-03-08T01:42:02.491Z,11.77
2019-03-08T01:44:36.298Z,8.53
2019-03-08T01:47:12.593Z,9.43
2019-03-08T01:49:47.409Z,11.23
2019-03-08T01:52:23.183Z,7.83
2019-03-08T01:54:59.658Z,11.73
2019-03-08T01:57:37.601Z,13.60
2019-03-08T02:00:15.842Z,13.13
2019-03-08T02:02:50.831Z,11.67
2019-03-08T02:05:25.176Z,10.97
2019-03-08T02:07:59.733Z,10.63
2019-03-08T02:10:34.994Z,11.57
2019-03-08T02:13:09.181Z,10.30
2019-03-08T02:15:43.523Z,12.43
2019-03-08T02:18:18.945Z,12.27
2019-03-08T02:20:53.361Z,10.90
2019-03-08T02:23:29.066Z,11.80
2019-03-08T02:26:03.466Z,8.80
2019-03-08T02:28:37.952Z,11.33
2019-03-08T02:31:11.591Z,13.10
2019-03-08T02:33:46.185Z,14.73
2019-03-08T02:36:24.431Z,17.70
2019-03-08T02:39:11.637Z,11.17
2019-03-08T02:41:57.840Z,21.43
2019-03-08T02:44:34.542Z,16.10
2019-03-08T02:47:15.208Z,14.03
2019-03-08T02:50:07.275Z,14.80
2019-03-08T02:52:41.997Z,18.03
2019-03-08T02:55:20.461Z,15.63
2019-03-08T02:57:55.281Z,13.93
2019-03-08T03:01:02.193Z,11.80
2019-03-08T03:03:39.027Z,12.33
2019-03-08T03:06:13.042Z,7.00
2019-03-08T03:08:47.649Z,9.07
2019-03-08T03:11:22.877Z,8.57
2019-03-08T03:13:57.284Z,5.17
2019-03-08T03:16:32.246Z,8.47
2019-03-08T03:19:06.036Z,5.93
2019-03-08T03:21:41.905Z,7.77
2019-03-08T03:24:15.587Z,8.83
2019-03-08T03:26:50.572Z,6.47
2019-03-08T03:29:25.200Z,7.43
2019-03-08T03:32:03.241Z,7.10
2019-03-08T03:34:36.935Z,11.13
2019-03-08T03:37:10.805Z,6.97
2019-03-08T03:39:45.139Z,6.77
2019-03-08T03:42:19.164Z,8.23
2019-03-08T03:44:53.466Z,8.83
2019-03-08T03:47:29.183Z,10.50
2019-03-08T03:50:02.542Z,9.73
2019-03-08T03:52:42.947Z,8.63
2019-03-08T03:55:26.884Z,7.20
2019-03-08T03:58:00.513Z,10.63
2019-03-08T04:00:34.897Z,8.47
2019-03-08T04:03:10.668Z,10.90
2019-03-08T04:06:05.406Z,11.40
2019-03-08T04:08:42.014Z,14.27
2019-03-08T04:11:16.057Z,9.53
2019-03-08T04:13:50.425Z,8.77
2019-03-08T04:16:24.385Z,11.23
2019-03-08T04:18:58.361Z,10.53
2019-03-08T04:21:32.245Z,6.83
2019-03-08T04:24:06.361Z,10.53
2019-03-08T04:26:40.231Z,9.60
2019-03-08T04:29:14.534Z,11.60
2019-03-08T04:31:48.743Z,9.63
2019-03-08T04:34:24.650Z,11.90
2019-03-08T04:36:58.945Z,8.13
2019-03-08T04:39:33.607Z,14.57
2019-03-08T04:42:07.465Z,10.30
2019-03-08T04:44:41.095Z,10.07
2019-03-08T04:47:15.699Z,12.53
2019-03-08T04:49:54.435Z,13.37
2019-03-08T04:52:28.431Z,11.63
2019-03-08T04:55:02.454Z,11.73
2019-03-08T04:57:35.893Z,14.50
2019-03-08T05:00:10.445Z,10.27
2019-03-08T05:02:44.308Z,13.33
2019-03-08T05:05:17.420Z,17.93
2019-03-08T05:07:51.171Z,11.87
2019-03-08T05:10:25.881Z,10.13
2019-03-08T05:12:59.172Z,11.33
2019-03-08T05:15:32.848Z,10.33
2019-03-08T05:18:06.157Z,13.50
2019-03-08T05:20:40.027Z,11.27
2019-03-08T05:23:14.561Z,14.87
2019-03-08T05:25:49.890Z,16.00
2019-03-08T05:28:24.205Z,15.23
2019-03-08T05:30:58.747Z,11.13
2019-03-08T05:33:32.826Z,15.40
2019-03-08T05:36:07.723Z,13.87
2019-03-08T05:38:41.108Z,16.90
2019-03-08T05:41:15.349Z,16.37
2019-03-08T05:43:49.810Z,14.53
2019-03-08T05:46:23.887Z,15.70
2019-03-08T05:49:00.181Z,11.10
2019-03-08T05:51:38.065Z,16.07
2019-03-08T05:54:13.667Z,18.90
2019-03-08T05:56:48.049Z,17.13
2019-03-08T05:59:23.512Z,15.50
2019-03-08T06:02:02.082Z,16.93
2019-03-08T06:04:35.217Z,15.10
2019-03-08T06:07:11.366Z,21.33
2019-03-08T06:10:26.890Z,23.90
2019-03-08T06:13:07.238Z,22.73
2019-03-08T06:15:43.342Z,20.70
2019-03-08T06:18:39.222Z,18.43
2019-03-08T06:21:19.267Z,21.77
2019-03-08T06:23:57.569Z,16.90
2019-03-08T06:26:31.796Z,20.33
2019-03-08T06:29:10.074Z,20.10
2019-03-08T06:31:44.556Z,20.03
2019-03-08T06:34:19.955Z,10.30
2019-03-08T06:36:53.762Z,14.90
2019-03-08T06:39:26.663Z,26.57
2019-03-08T06:41:58.993Z,19.50
2019-03-08T06:44:33.476Z,18.40
2019-03-08T06:47:05.823Z,16.97
2019-03-08T06:49:37.151Z,23.43
2019-03-08T06:52:08.692Z,17.23
2019-03-08T06:54:41.363Z,15.50
2019-03-08T06:57:14.501Z,14.93
2019-03-08T06:59:51.911Z,19.60
2019-03-08T07:02:30.277Z,19.13
2019-03-08T07:05:18.208Z,18.13
2019-03-08T07:07:51.926Z,15.47
2019-03-08T07:10:25.634Z,17.77
2019-03-08T07:13:03.158Z,18.90
2019-03-08T07:15:33.186Z,15.77
2019-03-08T07:18:12.258Z,16.20
2019-03-08T07:21:04.133Z,17.77
2019-03-08T07:23:59.870Z,14.13
2019-03-08T07:26:50.420Z,15.57
2019-03-08T07:29:41.428Z,13.33
2019-03-08T07:32:39.877Z,20.67
2019-03-08T07:35:34.329Z,20.63
2019-03-08T07:38:35.682Z,19.63
2019-03-08T07:41:28.975Z,17.53
2019-03-08T07:44:26.275Z,12.77
2019-03-08T07:47:18.847Z,15.00
2019-03-08T07:50:17.922Z,18.27
2019-03-08T07:53:10.340Z,28.73
2019-03-08T07:55:50.767Z,26.23
2019-03-08T07:58:40.405Z,18.93
2019-03-08T08:01:24.623Z,20.63
2019-03-08T08:04:09.793Z,16.27
2019-03-08T08:06:50.457Z,18.43
2019-03-08T08:09:40.893Z,21.63
2019-03-08T08:12:33.540Z,19.80
2019-03-08T08:15:21.858Z,22.50
2019-03-08T08:18:02.149Z,22.33
2019-03-08T08:20:42.100Z,21.80
2019-03-08T08:23:35.029Z,16.57
2019-03-08T08:26:17.436Z,19.23
2019-03-08T08:29:01.132Z,20.90
2019-03-08T08:31:49.552Z,19.03
2019-03-08T08:34:39.458Z,20.07
2019-03-08T08:37:32.155Z,22.87
2019-03-08T08:40:28.320Z,21.90
2019-03-08T08:43:10.012Z,20.27
2019-03-08T08:45:58.875Z,25.63
2019-03-08T08:48:51.689Z,20.27
2019-03-08T08:51:41.267Z,20.07
2019-03-08T08:54:45.762Z,26.47
2019-03-08T08:57:27.395Z,20.30
2019-03-08T09:00:35.312Z,30.27
2019-03-08T09:03:30.335Z,25.43
2019-03-08T09:06:20.887Z,21.97
2019-03-08T09:09:09.914Z,26.53
2019-03-08T09:11:58.537Z,25.53
2019-03-08T09:14:42.404Z,23.77
2019-03-08T09:17:53.112Z,22.17
2019-03-08T09:20:49.774Z,23.13
2019-03-08T09:24:02.500Z,16.20
2019-03-08T09:26:46.684Z,20.17
2019-03-08T09:29:47.207Z,20.13
2019-03-08T09:32:36.569Z,19.43
2019-03-08T09:35:22.077Z,22.50
2019-03-08T09:38:17.889Z,25.27
2019-03-08T09:41:06.000Z,17.63
2019-03-08T09:43:58.920Z,25.13
2019-03-08T09:46:49.296Z,19.40
2019-03-08T09:49:43.069Z,15.90
2019-03-08T09:52:32.509Z,20.33
2019-03-08T09:55:24.418Z,16.63
2019-03-08T09:58:14.079Z,14.27
2019-03-08T10:00:58.717Z,22.30
2019-03-08T10:03:48.888Z,21.23
2019-03-08T10:06:34.816Z,19.00
2019-03-08T10:09:34.355Z,17.30
2019-03-08T10:12:24.021Z,11.73
2019-03-08T10:15:06.214Z,12.80
2019-03-08T10:18:11.556Z,15.73
2019-03-08T10:21:01.037Z,19.60
2019-03-08T10:24:03.332Z,16.93
2019-03-08T10:26:52.962Z,15.00
2019-03-08T10:29:56.493Z,15.40
2019-03-08T10:32:41.287Z,20.23
2019-03-08T10:35:31.115Z,15.00
2019-03-08T10:38:25.206Z,15.47
2019-03-08T10:41:14.652Z,20.90
2019-03-08T10:44:09.113Z,16.10
2019-03-08T10:46:53.548Z,21.50
2019-03-08T10:49:43.037Z,14.63
2019-03-08T10:52:42.194Z,12.90
2019-03-08T10:55:33.914Z,8.57
2019-03-08T10:58:43.578Z,17.20
2019-03-08T11:01:28.711Z,13.90
2019-03-08T11:04:14.912Z,11.57
2019-03-08T11:07:14.586Z,15.47
2019-03-08T11:09:59.532Z,9.13
2019-03-08T11:12:51.794Z,16.10
2019-03-08T11:15:46.804Z,13.90
2019-03-08T11:18:36.320Z,11.60
2019-03-08T11:21:26.746Z,11.27
2019-03-08T11:24:16.179Z,11.53
2019-03-08T11:27:08.653Z,11.50
2019-03-08T11:29:58.291Z,12.43
2019-03-08T11:32:51.434Z,11.83
2019-03-08T11:35:56.136Z,19.37
2019-03-08T11:38:45.955Z,18.40
2019-03-08T11:41:38.533Z,10.50
2019-03-08T11:44:28.347Z,12.10
2019-03-08T11:47:26.223Z,14.83
2019-03-08T11:50:28.496Z,12.87
2019-03-08T11:53:30.892Z,13.90
2019-03-08T11:56:19.051Z,22.70
2019-03-08T11:59:07.311Z,12.97
2019-03-08T12:01:55.702Z,22.07
2019-03-08T12:05:04.606Z,18.97
2019-03-08T12:07:44.552Z,12.70
2019-03-08T12:10:28.840Z,15.60
2019-03-08T12:13:08.140Z,12.67
2019-03-08T12:15:59.720Z,10.20
2019-03-08T12:18:56.920Z,12.33
2019-03-08T12:21:38.781Z,9.73
2019-03-08T12:24:28.336Z,11.53
2019-03-08T12:27:15.302Z,14.53
2019-03-08T12:30:12.526Z,10.53
2019-03-08T12:33:12.642Z,9.80
2019-03-08T12:35:51.806Z,11.93
2019-03-08T12:38:41.293Z,11.23
2019-03-08T12:41:22.411Z,8.43
2019-03-08T12:44:14.692Z,10.40
2019-03-08T12:47:19.221Z,8.10
2019-03-08T12:50:06.398Z,6.67
2019-03-08T12:53:07.774Z,9.13
2019-03-08T12:56:03.947Z,5.33
2019-03-08T12:58:52.237Z,6.33
2019-03-08T13:01:29.753Z,8.30
2019-03-08T13:04:24.333Z,9.07
2019-03-08T13:07:04.538Z,6.23
2019-03-08T13:09:46.912Z,11.17
2019-03-08T13:12:19.363Z,9.03
2019-03-08T13:14:50.101Z,9.50
2019-03-08T13:17:21.315Z,9.13
2019-03-08T13:19:53.341Z,14.80
2019-03-08T13:22:26.861Z,9.03
2019-03-08T13:25:01.634Z,9.80
2019-03-08T13:27:33.121Z,9.57
2019-03-08T13:30:04.083Z,11.93
2019-03-08T13:32:38.724Z,7.70
2019-03-08T13:35:16.328Z,6.03
2019-03-08T13:37:47.195Z,6.50
2019-03-08T13:40:37.774Z,7.60
2019-03-08T13:43:17.733Z,9.67
2019-03-08T13:45:48.553Z,13.97
2019-03-08T13:48:20.705Z,8.10
2019-03-08T13:50:51.506Z,9.10
2019-03-08T13:53:24.436Z,8.80
2019-03-08T13:55:55.192Z,9.97
2019-03-08T13:58:31.124Z,10.43
2019-03-08T14:01:02.726Z,8.23
2019-03-08T14:03:33.487Z,5.63
2019-03-08T14:06:05.816Z,7.07
2019-03-08T14:08:37.461Z,10.10
2019-03-08T14:11:08.171Z,8.23
2019-03-08T14:13:38.935Z,11.77
2019-03-08T14:16:09.754Z,11.37
2019-03-08T14:18:40.462Z,7.27
2019-03-08T14:21:11.781Z,10.40
2019-03-08T14:23:44.350Z,8.07
2019-03-08T14:26:15.088Z,7.47
2019-03-08T14:28:47.162Z,11.60
2019-03-08T14:31:27.396Z,9.50
2019-03-08T14:33:59.902Z,8.90
2019-03-08T14:36:33.178Z,8.50
2019-03-08T14:39:07.958Z,9.93
2019-03-08T14:41:50.431Z,8.57
2019-03-08T14:44:57.829Z,8.30
2019-03-08T14:47:34.375Z,7.57
2019-03-08T14:50:09.988Z,9.50
2019-03-08T14:52:42.672Z,8.30
2019-03-08T14:55:22.189Z,9.67
2019-03-08T14:57:55.260Z,7.40
2019-03-08T15:00:30.443Z,8.27
2019-03-08T15:03:04.377Z,9.13
2019-03-08T15:05:42.035Z,7.77
2019-03-08T15:08:19.205Z,6.50
2019-03-08T15:11:15.722Z,9.70
2019-03-08T15:13:41.574Z,6.90
2019-03-08T15:16:18.670Z,7.20
2019-03-08T15:18:52.865Z,7.10
2019-03-08T15:21:25.516Z,5.67
2019-03-08T15:23:58.375Z,7.13
2019-03-08T15:26:32.284Z,10.53
2019-03-08T15:29:13.557Z,8.30
2019-03-08T15:31:49.918Z,6.43
2019-03-08T15:34:23.625Z,6.70
2019-03-08T15:36:57.231Z,7.30
2019-03-08T15:39:32.329Z,8.03
2019-03-08T15:42:08.030Z,5.47
2019-03-08T15:44:41.727Z,7.37
2019-03-08T15:47:23.928Z,7.40
2019-03-08T15:49:59.359Z,5.30
2019-03-08T15:52:33.544Z,5.53
2019-03-08T15:55:07.607Z,8.30
2019-03-08T15:57:39.336Z,6.13
2019-03-08T16:00:15.409Z,7.60
2019-03-08T16:02:47.903Z,6.83
2019-03-08T16:05:19.327Z,6.47
2019-03-08T16:07:50.377Z,10.20
2019-03-08T16:10:21.177Z,6.30
2019-03-08T16:12:52.036Z,5.93
2019-03-08T16:15:24.870Z,6.73
2019-03-08T16:17:56.887Z,5.60
2019-03-08T16:20:31.176Z,7.13
2019-03-08T16:23:11.004Z,6.00
2019-03-08T16:25:47.584Z,7.80
2019-03-08T16:28:17.437Z,6.03
2019-03-08T16:30:59.131Z,6.73
2019-03-08T16:34:00.457Z,7.13
2019-03-08T16:36:49.080Z,5.97
2019-03-08T16:39:43.271Z,7.50
2019-03-08T16:42:26.697Z,6.40
2019-03-08T16:45:21.547Z,4.80
2019-03-08T16:48:27.646Z,6.63
2019-03-08T16:51:15.410Z,5.77
2019-03-08T16:54:11.972Z,4.37
2019-03-08T16:57:03.117Z,6.03
2019-03-08T16:59:55.424Z,5.50
2019-03-08T17:02:51.580Z,6.00
2019-03-08T17:05:55.808Z,4.93
2019-03-08T17:08:49.697Z,7.03
2019-03-08T17:11:39.062Z,3.80
2019-03-08T17:14:47.410Z,6.27
2019-03-08T17:17:46.694Z,10.03
2019-03-08T17:20:37.307Z,7.10
2019-03-08T17:23:28.728Z,7.97
2019-03-08T17:26:16.850Z,8.30
2019-03-08T17:29:12.707Z,8.83
2019-03-08T17:32:06.951Z,6.23
2019-03-08T17:35:20.587Z,4.60
2019-03-08T17:38:21.063Z,9.10
2019-03-08T17:41:18.303Z,9.10
2019-03-08T17:44:31.786Z,4.00
2019-03-08T17:47:20.207Z,4.13
2019-03-08T17:50:19.626Z,7.10
2019-03-08T17:53:02.771Z,6.47
2019-03-08T17:55:56.101Z,5.83
2019-03-08T17:58:56.626Z,7.70
2019-03-08T18:01:50.778Z,7.17
2019-03-08T18:04:33.066Z,4.50
2019-03-08T18:07:28.588Z,5.13
2019-03-08T18:10:23.795Z,7.40
2019-03-08T18:13:28.491Z,5.33
2019-03-08T18:16:05.584Z,5.33
2019-03-08T18:19:09.723Z,4.70
2019-03-08T18:22:07.722Z,4.63
2019-03-08T18:25:02.481Z,3.87
2019-03-08T18:28:11.891Z,4.87
2019-03-08T18:31:10.163Z,5.13
2019-03-08T18:34:10.823Z,7.33
2019-03-08T18:37:15.252Z,4.40
2019-03-08T18:40:06.513Z,7.33
2019-03-08T18:42:56.330Z,9.63
2019-03-08T18:45:54.037Z,9.10
2019-03-08T18:48:39.696Z,8.83
2019-03-08T18:51:37.649Z,5.27
2019-03-08T18:54:36.272Z,8.40
2019-03-08T18:57:32.190Z,6.87
2019-03-08T19:00:35.294Z,6.67
2019-03-08T19:03:16.648Z,8.67
2019-03-08T19:06:02.613Z,8.30
2019-03-08T19:08:57.624Z,8.27
2019-03-08T19:11:45.061Z,7.33
2019-03-08T19:14:40.523Z,4.60
2019-03-08T19:17:30.601Z,4.17
2019-03-08T19:20:26.362Z,14.50
2019-03-08T19:23:10.373Z,10.47
2019-03-08T19:25:54.806Z,8.73
2019-03-08T19:28:45.690Z,9.50
2019-03-08T19:31:33.918Z,10.27
2019-03-08T19:34:31.014Z,10.90
2019-03-08T19:37:17.555Z,14.70
2019-03-08T19:40:11.853Z,11.80
2019-03-08T19:43:09.371Z,10.03
2019-03-08T19:46:02.503Z,6.40
2019-03-08T19:49:05.935Z,7.87
2019-03-08T19:52:03.073Z,7.53
2019-03-08T19:54:53.334Z,12.57
2019-03-08T19:57:48.192Z,10.33
2019-03-08T20:00:32.971Z,10.53
2019-03-08T20:03:17.420Z,8.23
2019-03-08T20:06:01.860Z,10.40
2019-03-08T20:09:00.535Z,14.80
2019-03-08T20:11:57.670Z,14.03
2019-03-08T20:15:01.150Z,11.97
2019-03-08T20:17:44.771Z,7.47
2019-03-08T20:20:29.373Z,12.03
2019-03-08T20:23:15.226Z,14.87
2019-03-08T20:26:17.527Z,12.37
2019-03-08T20:29:13.341Z,8.33
2019-03-08T20:32:10.026Z,11.33
2019-03-08T20:35:07.403Z,7.83
2019-03-08T20:38:14.726Z,16.70
2019-03-08T20:40:57.930Z,6.03
2019-03-08T20:43:46.968Z,7.97
2019-03-08T20:46:26.340Z,13.70
2019-03-08T20:49:02.089Z,10.17
2019-03-08T20:51:41.883Z,12.57
2019-03-08T20:54:15.394Z,10.60
2019-03-08T20:56:48.969Z,11.70
2019-03-08T20:59:26.415Z,10.47
2019-03-08T21:05:46.131Z,9.03
2019-03-08T21:08:21.248Z,9.73
2019-03-08T21:10:58.650Z,11.87
2019-03-08T21:13:34.562Z,12.83
2019-03-08T21:16:07.949Z,12.13
2019-03-08T21:18:40.743Z,12.30
2019-03-08T21:21:16.674Z,7.00
2019-03-08T21:23:52.898Z,12.57
2019-03-08T21:26:27.617Z,7.60
2019-03-08T21:29:01.268Z,9.50
2019-03-08T21:31:35.966Z,12.00
2019-03-08T21:34:12.214Z,14.27
2019-03-08T21:36:52.078Z,8.63
2019-03-08T21:39:28.710Z,11.83
2019-03-08T21:42:04.716Z,10.07
2019-03-08T21:44:38.343Z,11.87
2019-03-08T21:47:11.791Z,12.47
2019-03-08T21:49:45.982Z,11.53
2019-03-08T21:52:19.656Z,12.20
2019-03-08T21:54:54.721Z,7.60
2019-03-08T21:57:29.231Z,8.57
2019-03-08T22:00:04.158Z,11.03
2019-03-08T22:02:43.161Z,10.40
2019-03-08T22:05:25.945Z,12.50
2019-03-08T22:08:00.842Z,11.70
2019-03-08T22:11:03.120Z,9.30
2019-03-08T22:13:37.657Z,10.23
2019-03-08T22:16:12.663Z,8.57
2019-03-08T22:18:48.099Z,11.63
2019-03-08T22:21:23.752Z,15.63
2019-03-08T22:23:58.972Z,8.93
2019-03-08T22:26:33.094Z,10.63
2019-03-08T22:29:07.638Z,10.73
2019-03-08T22:31:41.330Z,12.40
2019-03-08T22:34:14.933Z,14.27
2019-03-08T22:36:48.231Z,9.77
2019-03-08T22:39:27.084Z,11.57
2019-03-08T22:42:02.894Z,8.97
2019-03-08T22:44:36.566Z,12.60
2019-03-08T22:47:10.405Z,12.30
2019-03-08T22:49:45.405Z,8.83
2019-03-08T22:52:18.963Z,11.30
2019-03-08T22:54:54.709Z,10.53
2019-03-08T22:57:28.989Z,7.63
2019-03-08T23:00:03.446Z,9.10
2019-03-08T23:02:42.364Z,10.20
2019-03-08T23:05:19.266Z,7.30
2019-03-08T23:07:52.211Z,9.63
2019-03-08T23:10:32.369Z,5.47
2019-03-08T23:13:08.289Z,6.70
2019-03-08T23:15:45.744Z,5.90
2019-03-08T23:18:20.950Z,6.20
2019-03-08T23:20:57.224Z,8.10
2019-03-08T23:23:34.900Z,7.20
2019-03-08T23:26:08.285Z,9.50
2019-03-08T23:29:13.316Z,7.23
2019-03-08T23:32:09.880Z,11.97
2019-03-08T23:34:47.645Z,7.70
2019-03-08T23:37:22.187Z,8.93
2019-03-08T23:39:56.582Z,6.77
2019-03-08T23:42:30.157Z,9.70
2019-03-08T23:45:10.756Z,7.80
2019-03-08T23:47:44.845Z,9.50
2019-03-08T23:50:21.391Z,8.20
2019-03-08T23:52:55.286Z,10.13
2019-03-08T23:55:29.250Z,8.37
2019-03-08T23:58:07.790Z,10.03
